EDDS/STR METAR and TAF weather

Enter ICAO airport designator
Station Type Date Time Source
EDDS METAR 2021/09/27 07:50 UTC NOAA

EDDS 270750Z VRB02KT 9999 FEW035 17/13 Q1019 NOSIG


Station Type Date Time Source
EDDS Decoded METAR 2021/09/27 07:50 UTC NOAA

Stuttgart-Echterdingen, Germany (EDDS) 48-41N 009-13E 391M
Sep 27, 2021 - 03:50 AM EDT / 2021.09.27 0750 UTC
Wind: Variable at 2 MPH (2 KT):0
Visibility: greater than 7 mile(s):0
Sky conditions: mostly clear
Temperature: 62 F (17 C)
Dew Point: 55 F (13 C)
Relative Humidity: 77%
Pressure (altimeter): 30.09 in. Hg (1019 hPa)
ob: EDDS 270750Z VRB02KT 9999 FEW035 17/13 Q1019 NOSIG
cycle: 8

Station Type Date Time Source
EDDS TAF 2021/09/27 06:27 UTC NOAA

TAF EDDS 270500Z 2706/2806 23004KT 9999 SCT040 PROB30
TEMPO 2706/2707 4000 BCFG
BECMG 2707/2709 24009KT
BECMG 2723/2802 30012KT
TEMPO 2723/2802 4000 SHRA BKN015TCU

Example: see airport list